sensor_id;sensor_type;location;lat;lon;timestamp;P1;durP1;ratioP1;P2;durP2;ratioP2
54430;SDS011;40342;52.998;5.862;2022-07-23T00:01:22;1.17;;;0.88;;
54430;SDS011;40342;52.998;5.862;2022-07-23T00:03:56;4.82;;;0.77;;
54430;SDS011;40342;52.998;5.862;2022-07-23T00:06:22;4.20;;;0.70;;
54430;SDS011;40342;52.998;5.862;2022-07-23T00:08:49;1.05;;;0.70;;
54430;SDS011;40342;52.998;5.862;2022-07-23T00:11:15;1.25;;;0.63;;
54430;SDS011;40342;52.998;5.862;2022-07-23T00:13:41;0.40;;;0.40;;
54430;SDS011;40342;52.998;5.862;2022-07-23T00:16:07;0.60;;;0.32;;
54430;SDS011;40342;52.998;5.862;2022-07-23T00:18:32;0.30;;;0.30;;
54430;SDS011;40342;52.998;5.862;2022-07-23T00:20:58;0.00;;;0.00;;
54430;SDS011;40342;52.998;5.862;2022-07-23T00:23:24;0.43;;;0.20;;
54430;SDS011;40342;52.998;5.862;2022-07-23T00:25:54;0.10;;;0.10;;
54430;SDS011;40342;52.998;5.862;2022-07-23T00:28:20;0.10;;;0.10;;
54430;SDS011;40342;52.998;5.862;2022-07-23T00:30:46;0.20;;;0.20;;
54430;SDS011;40342;52.998;5.862;2022-07-23T00:33:12;0.28;;;0.28;;
54430;SDS011;40342;52.998;5.862;2022-07-23T00:35:40;1.13;;;0.40;;
54430;SDS011;40342;52.998;5.862;2022-07-23T00:38:07;0.93;;;0.93;;
54430;SDS011;40342;52.998;5.862;2022-07-23T00:40:34;0.70;;;0.70;;
54430;SDS011;40342;52.998;5.862;2022-07-23T00:43:00;2.17;;;1.52;;
54430;SDS011;40342;52.998;5.862;2022-07-23T00:45:26;2.03;;;1.50;;
54430;SDS011;40342;52.998;5.862;2022-07-23T00:47:52;2.47;;;1.40;;
54430;SDS011;40342;52.998;5.862;2022-07-23T00:50:18;2.22;;;2.08;;
54430;SDS011;40342;52.998;5.862;2022-07-23T00:52:44;1.63;;;1.50;;
54430;SDS011;40342;52.998;5.862;2022-07-23T00:55:10;1.80;;;1.70;;
54430;SDS011;40342;52.998;5.862;2022-07-23T00:57:36;2.40;;;1.17;;
54430;SDS011;40342;52.998;5.862;2022-07-23T01:00:03;2.78;;;1.58;;
54430;SDS011;40342;52.998;5.862;2022-07-23T01:02:31;2.45;;;1.55;;
54430;SDS011;40342;52.998;5.862;2022-07-23T01:04:56;1.80;;;1.70;;
54430;SDS011;40342;52.998;5.862;2022-07-23T01:07:22;2.25;;;2.15;;
54430;SDS011;40342;52.998;5.862;2022-07-23T01:09:48;9.27;;;2.90;;
54430;SDS011;40342;52.998;5.862;2022-07-23T01:12:15;4.68;;;3.38;;
54430;SDS011;40342;52.998;5.862;2022-07-23T01:14:41;4.22;;;3.20;;
54430;SDS011;40342;52.998;5.862;2022-07-23T01:17:06;4.15;;;2.92;;
54430;SDS011;40342;52.998;5.862;2022-07-23T01:19:32;3.92;;;2.97;;
54430;SDS011;40342;52.998;5.862;2022-07-23T01:21:58;3.25;;;2.97;;
54430;SDS011;40342;52.998;5.862;2022-07-23T01:24:26;3.60;;;3.30;;
54430;SDS011;40342;52.998;5.862;2022-07-23T01:26:52;5.35;;;3.33;;
54430;SDS011;40342;52.998;5.862;2022-07-23T01:29:18;4.00;;;3.25;;
54430;SDS011;40342;52.998;5.862;2022-07-23T01:31:44;3.90;;;3.20;;
54430;SDS011;40342;52.998;5.862;2022-07-23T01:34:10;3.28;;;2.97;;
54430;SDS011;40342;52.998;5.862;2022-07-23T01:36:36;3.90;;;3.42;;
54430;SDS011;40342;52.998;5.862;2022-07-23T01:39:05;4.93;;;3.38;;
54430;SDS011;40342;52.998;5.862;2022-07-23T01:41:31;3.85;;;3.40;;
54430;SDS011;40342;52.998;5.862;2022-07-23T01:43:57;4.15;;;2.92;;
54430;SDS011;40342;52.998;5.862;2022-07-23T01:46:23;3.70;;;3.40;;
54430;SDS011;40342;52.998;5.862;2022-07-23T01:48:49;3.95;;;3.60;;
54430;SDS011;40342;52.998;5.862;2022-07-23T01:51:14;15.27;;;3.97;;
54430;SDS011;40342;52.998;5.862;2022-07-23T01:53:40;2.40;;;2.20;;
54430;SDS011;40342;52.998;5.862;2022-07-23T01:56:06;3.03;;;2.33;;
54430;SDS011;40342;52.998;5.862;2022-07-23T01:58:32;2.30;;;1.63;;
54430;SDS011;40342;52.998;5.862;2022-07-23T02:00:58;2.10;;;1.90;;
54430;SDS011;40342;52.998;5.862;2022-07-23T02:03:24;3.40;;;2.30;;
54430;SDS011;40342;52.998;5.862;2022-07-23T02:05:50;3.42;;;2.40;;
54430;SDS011;40342;52.998;5.862;2022-07-23T02:08:16;7.75;;;2.15;;
54430;SDS011;40342;52.998;5.862;2022-07-23T02:10:42;1.48;;;1.17;;
54430;SDS011;40342;52.998;5.862;2022-07-23T02:13:07;1.05;;;0.93;;
54430;SDS011;40342;52.998;5.862;2022-07-23T02:15:33;2.35;;;1.00;;
54430;SDS011;40342;52.998;5.862;2022-07-23T02:17:59;0.80;;;0.80;;
54430;SDS011;40342;52.998;5.862;2022-07-23T02:20:25;2.33;;;1.38;;
54430;SDS011;40342;52.998;5.862;2022-07-23T02:22:50;1.40;;;1.30;;
54430;SDS011;40342;52.998;5.862;2022-07-23T02:25:16;1.30;;;1.30;;
54430;SDS011;40342;52.998;5.862;2022-07-23T02:27:42;1.20;;;1.10;;
54430;SDS011;40342;52.998;5.862;2022-07-23T02:30:08;1.13;;;1.10;;
54430;SDS011;40342;52.998;5.862;2022-07-23T02:32:35;1.33;;;1.20;;
54430;SDS011;40342;52.998;5.862;2022-07-23T02:35:01;1.83;;;1.33;;
54430;SDS011;40342;52.998;5.862;2022-07-23T02:37:28;1.05;;;0.93;;
54430;SDS011;40342;52.998;5.862;2022-07-23T02:39:53;14.43;;;1.80;;
54430;SDS011;40342;52.998;5.862;2022-07-23T02:42:19;36.65;;;1.20;;
54430;SDS011;40342;52.998;5.862;2022-07-23T02:44:45;17.38;;;0.90;;
54430;SDS011;40342;52.998;5.862;2022-07-23T02:47:11;7.63;;;0.50;;
54430;SDS011;40342;52.998;5.862;2022-07-23T02:49:36;1.30;;;0.60;;
54430;SDS011;40342;52.998;5.862;2022-07-23T02:52:02;0.50;;;0.50;;
54430;SDS011;40342;52.998;5.862;2022-07-23T02:54:28;1.50;;;0.60;;
54430;SDS011;40342;52.998;5.862;2022-07-23T02:56:53;1.23;;;0.80;;
54430;SDS011;40342;52.998;5.862;2022-07-23T02:59:19;1.58;;;0.40;;
54430;SDS011;40342;52.998;5.862;2022-07-23T03:01:45;1.23;;;0.70;;
54430;SDS011;40342;52.998;5.862;2022-07-23T03:04:11;12.02;;;2.60;;
54430;SDS011;40342;52.998;5.862;2022-07-23T03:06:36;1.55;;;1.45;;
54430;SDS011;40342;52.998;5.862;2022-07-23T03:09:02;2.95;;;1.60;;
54430;SDS011;40342;52.998;5.862;2022-07-23T03:11:29;1.05;;;1.05;;
54430;SDS011;40342;52.998;5.862;2022-07-23T03:13:55;1.10;;;1.10;;
54430;SDS011;40342;52.998;5.862;2022-07-23T03:16:20;1.20;;;1.13;;
54430;SDS011;40342;52.998;5.862;2022-07-23T03:18:46;2.28;;;1.50;;
54430;SDS011;40342;52.998;5.862;2022-07-23T03:21:11;1.45;;;1.33;;
54430;SDS011;40342;52.998;5.862;2022-07-23T03:23:37;1.40;;;1.30;;
54430;SDS011;40342;52.998;5.862;2022-07-23T03:26:03;2.30;;;1.92;;
54430;SDS011;40342;52.998;5.862;2022-07-23T03:28:29;6.47;;;2.45;;
54430;SDS011;40342;52.998;5.862;2022-07-23T03:30:55;1.83;;;1.73;;
54430;SDS011;40342;52.998;5.862;2022-07-23T03:33:21;1.73;;;1.63;;
54430;SDS011;40342;52.998;5.862;2022-07-23T03:35:47;0.70;;;0.50;;
54430;SDS011;40342;52.998;5.862;2022-07-23T03:38:13;2.30;;;0.40;;
54430;SDS011;40342;52.998;5.862;2022-07-23T03:40:39;0.52;;;0.38;;
54430;SDS011;40342;52.998;5.862;2022-07-23T03:43:05;1.65;;;0.40;;
54430;SDS011;40342;52.998;5.862;2022-07-23T03:45:31;6.00;;;1.33;;
54430;SDS011;40342;52.998;5.862;2022-07-23T03:47:57;14.68;;;1.17;;
54430;SDS011;40342;52.998;5.862;2022-07-23T03:50:22;3.33;;;0.47;;
54430;SDS011;40342;52.998;5.862;2022-07-23T03:52:48;0.30;;;0.30;;
54430;SDS011;40342;52.998;5.862;2022-07-23T03:55:14;2.30;;;0.73;;
54430;SDS011;40342;52.998;5.862;2022-07-23T03:57:40;1.95;;;0.85;;
54430;SDS011;40342;52.998;5.862;2022-07-23T04:00:06;0.30;;;0.30;;
54430;SDS011;40342;52.998;5.862;2022-07-23T04:02:34;0.45;;;0.25;;
54430;SDS011;40342;52.998;5.862;2022-07-23T04:05:00;0.70;;;0.50;;
54430;SDS011;40342;52.998;5.862;2022-07-23T04:07:26;1.27;;;1.10;;
54430;SDS011;40342;52.998;5.862;2022-07-23T04:09:52;0.70;;;0.70;;
54430;SDS011;40342;52.998;5.862;2022-07-23T04:12:18;0.77;;;0.60;;
54430;SDS011;40342;52.998;5.862;2022-07-23T04:14:43;0.65;;;0.52;;
54430;SDS011;40342;52.998;5.862;2022-07-23T04:17:09;1.85;;;0.40;;
54430;SDS011;40342;52.998;5.862;2022-07-23T04:19:36;2.05;;;0.75;;
54430;SDS011;40342;52.998;5.862;2022-07-23T04:22:05;1.42;;;0.98;;
54430;SDS011;40342;52.998;5.862;2022-07-23T04:24:31;0.93;;;0.70;;
54430;SDS011;40342;52.998;5.862;2022-07-23T04:26:57;0.90;;;0.90;;
54430;SDS011;40342;52.998;5.862;2022-07-23T04:29:23;1.15;;;1.05;;
54430;SDS011;40342;52.998;5.862;2022-07-23T04:31:48;1.40;;;0.80;;
54430;SDS011;40342;52.998;5.862;2022-07-23T04:34:14;3.30;;;1.92;;
54430;SDS011;40342;52.998;5.862;2022-07-23T04:36:39;5.22;;;2.80;;
54430;SDS011;40342;52.998;5.862;2022-07-23T04:39:05;4.00;;;2.25;;
54430;SDS011;40342;52.998;5.862;2022-07-23T04:41:31;2.60;;;2.40;;
54430;SDS011;40342;52.998;5.862;2022-07-23T04:43:57;2.50;;;2.28;;
54430;SDS011;40342;52.998;5.862;2022-07-23T04:46:22;2.40;;;1.88;;
54430;SDS011;40342;52.998;5.862;2022-07-23T04:48:50;2.47;;;2.30;;
54430;SDS011;40342;52.998;5.862;2022-07-23T04:51:16;2.35;;;2.15;;
54430;SDS011;40342;52.998;5.862;2022-07-23T04:53:41;3.00;;;2.38;;
54430;SDS011;40342;52.998;5.862;2022-07-23T04:56:07;2.92;;;2.55;;
54430;SDS011;40342;52.998;5.862;2022-07-23T04:58:33;2.85;;;2.30;;
54430;SDS011;40342;52.998;5.862;2022-07-23T05:00:58;2.55;;;2.35;;
54430;SDS011;40342;52.998;5.862;2022-07-23T05:03:24;2.20;;;2.10;;
54430;SDS011;40342;52.998;5.862;2022-07-23T05:05:50;2.28;;;1.92;;
54430;SDS011;40342;52.998;5.862;2022-07-23T05:08:15;3.50;;;2.45;;
54430;SDS011;40342;52.998;5.862;2022-07-23T05:10:41;2.55;;;1.90;;
54430;SDS011;40342;52.998;5.862;2022-07-23T05:13:06;2.75;;;2.20;;
54430;SDS011;40342;52.998;5.862;2022-07-23T05:15:32;3.50;;;2.05;;
54430;SDS011;40342;52.998;5.862;2022-07-23T05:17:58;3.20;;;2.45;;
54430;SDS011;40342;52.998;5.862;2022-07-23T05:20:23;2.30;;;2.20;;
54430;SDS011;40342;52.998;5.862;2022-07-23T05:22:49;3.10;;;2.40;;
54430;SDS011;40342;52.998;5.862;2022-07-23T05:25:15;2.53;;;2.22;;
54430;SDS011;40342;52.998;5.862;2022-07-23T05:27:40;3.13;;;2.80;;
54430;SDS011;40342;52.998;5.862;2022-07-23T05:30:06;3.85;;;3.45;;
54430;SDS011;40342;52.998;5.862;2022-07-23T05:32:32;4.85;;;4.30;;
54430;SDS011;40342;52.998;5.862;2022-07-23T05:34:58;5.82;;;4.05;;
54430;SDS011;40342;52.998;5.862;2022-07-23T05:37:24;5.38;;;3.80;;
54430;SDS011;40342;52.998;5.862;2022-07-23T05:39:49;4.55;;;4.07;;
54430;SDS011;40342;52.998;5.862;2022-07-23T05:42:15;5.50;;;4.18;;
54430;SDS011;40342;52.998;5.862;2022-07-23T05:44:40;6.38;;;4.22;;
54430;SDS011;40342;52.998;5.862;2022-07-23T05:47:06;4.13;;;3.60;;
54430;SDS011;40342;52.998;5.862;2022-07-23T05:49:32;4.40;;;3.50;;
54430;SDS011;40342;52.998;5.862;2022-07-23T05:51:57;3.88;;;3.58;;
54430;SDS011;40342;52.998;5.862;2022-07-23T05:54:23;7.57;;;4.35;;
54430;SDS011;40342;52.998;5.862;2022-07-23T05:56:49;12.20;;;4.25;;
54430;SDS011;40342;52.998;5.862;2022-07-23T05:59:15;7.10;;;4.38;;
54430;SDS011;40342;52.998;5.862;2022-07-23T06:01:41;6.40;;;4.03;;
54430;SDS011;40342;52.998;5.862;2022-07-23T06:04:07;5.50;;;4.18;;
54430;SDS011;40342;52.998;5.862;2022-07-23T06:06:32;9.25;;;4.15;;
54430;SDS011;40342;52.998;5.862;2022-07-23T06:09:00;4.93;;;3.28;;
54430;SDS011;40342;52.998;5.862;2022-07-23T06:11:26;4.43;;;3.00;;
54430;SDS011;40342;52.998;5.862;2022-07-23T06:13:52;3.13;;;1.25;;
54430;SDS011;40342;52.998;5.862;2022-07-23T06:16:17;1.98;;;0.80;;
54430;SDS011;40342;52.998;5.862;2022-07-23T06:18:43;1.25;;;0.60;;
54430;SDS011;40342;52.998;5.862;2022-07-23T06:21:08;1.40;;;0.55;;
54430;SDS011;40342;52.998;5.862;2022-07-23T06:23:39;0.82;;;0.80;;
54430;SDS011;40342;52.998;5.862;2022-07-23T06:26:04;2.80;;;1.05;;
54430;SDS011;40342;52.998;5.862;2022-07-23T06:28:30;3.45;;;0.68;;
54430;SDS011;40342;52.998;5.862;2022-07-23T06:30:58;2.88;;;0.93;;
54430;SDS011;40342;52.998;5.862;2022-07-23T06:33:23;1.38;;;0.90;;
54430;SDS011;40342;52.998;5.862;2022-07-23T06:35:49;2.83;;;1.02;;
54430;SDS011;40342;52.998;5.862;2022-07-23T06:38:24;1.52;;;0.93;;
54430;SDS011;40342;52.998;5.862;2022-07-23T06:40:50;2.75;;;0.90;;
54430;SDS011;40342;52.998;5.862;2022-07-23T06:43:16;1.58;;;0.65;;
54430;SDS011;40342;52.998;5.862;2022-07-23T06:45:41;0.50;;;0.43;;
54430;SDS011;40342;52.998;5.862;2022-07-23T06:48:07;3.92;;;0.60;;
54430;SDS011;40342;52.998;5.862;2022-07-23T06:50:33;2.30;;;0.63;;
54430;SDS011;40342;52.998;5.862;2022-07-23T06:53:02;1.30;;;0.50;;
54430;SDS011;40342;52.998;5.862;2022-07-23T06:55:27;0.77;;;0.55;;
54430;SDS011;40342;52.998;5.862;2022-07-23T06:57:53;1.35;;;0.40;;
54430;SDS011;40342;52.998;5.862;2022-07-23T07:00:18;0.85;;;0.60;;
54430;SDS011;40342;52.998;5.862;2022-07-23T07:02:44;3.88;;;0.80;;
54430;SDS011;40342;52.998;5.862;2022-07-23T07:05:10;1.50;;;0.57;;
54430;SDS011;40342;52.998;5.862;2022-07-23T07:07:35;0.40;;;0.40;;
54430;SDS011;40342;52.998;5.862;2022-07-23T07:10:02;2.53;;;0.55;;
54430;SDS011;40342;52.998;5.862;2022-07-23T07:12:28;0.60;;;0.50;;
54430;SDS011;40342;52.998;5.862;2022-07-23T07:14:54;1.23;;;0.50;;
54430;SDS011;40342;52.998;5.862;2022-07-23T07:17:19;1.13;;;0.60;;
54430;SDS011;40342;52.998;5.862;2022-07-23T07:19:45;2.20;;;0.65;;
54430;SDS011;40342;52.998;5.862;2022-07-23T07:22:11;1.50;;;0.60;;
54430;SDS011;40342;52.998;5.862;2022-07-23T07:24:36;3.05;;;0.60;;
54430;SDS011;40342;52.998;5.862;2022-07-23T07:27:02;1.88;;;0.73;;
54430;SDS011;40342;52.998;5.862;2022-07-23T07:29:27;2.88;;;0.60;;
54430;SDS011;40342;52.998;5.862;2022-07-23T07:31:53;1.77;;;0.43;;
54430;SDS011;40342;52.998;5.862;2022-07-23T07:34:19;1.17;;;0.50;;
54430;SDS011;40342;52.998;5.862;2022-07-23T07:36:45;0.75;;;0.52;;
54430;SDS011;40342;52.998;5.862;2022-07-23T07:39:11;1.25;;;0.45;;
54430;SDS011;40342;52.998;5.862;2022-07-23T07:41:36;2.38;;;0.73;;
54430;SDS011;40342;52.998;5.862;2022-07-23T07:44:02;1.65;;;0.50;;
54430;SDS011;40342;52.998;5.862;2022-07-23T07:46:27;1.30;;;0.50;;
54430;SDS011;40342;52.998;5.862;2022-07-23T07:48:53;0.52;;;0.32;;
54430;SDS011;40342;52.998;5.862;2022-07-23T07:51:19;1.92;;;0.60;;
54430;SDS011;40342;52.998;5.862;2022-07-23T07:53:45;1.38;;;0.50;;
54430;SDS011;40342;52.998;5.862;2022-07-23T07:56:10;1.58;;;0.40;;
54430;SDS011;40342;52.998;5.862;2022-07-23T07:58:36;0.40;;;0.40;;
54430;SDS011;40342;52.998;5.862;2022-07-23T08:01:01;1.58;;;0.50;;
54430;SDS011;40342;52.998;5.862;2022-07-23T08:03:27;1.23;;;0.52;;
54430;SDS011;40342;52.998;5.862;2022-07-23T08:05:53;4.13;;;0.77;;
54430;SDS011;40342;52.998;5.862;2022-07-23T08:08:19;3.03;;;0.90;;
54430;SDS011;40342;52.998;5.862;2022-07-23T08:10:45;2.60;;;0.70;;
54430;SDS011;40342;52.998;5.862;2022-07-23T08:13:13;0.65;;;0.50;;
54430;SDS011;40342;52.998;5.862;2022-07-23T08:15:43;0.77;;;0.50;;
54430;SDS011;40342;52.998;5.862;2022-07-23T08:18:09;0.77;;;0.43;;
54430;SDS011;40342;52.998;5.862;2022-07-23T08:20:35;1.38;;;0.50;;
54430;SDS011;40342;52.998;5.862;2022-07-23T08:23:05;1.08;;;0.40;;
54430;SDS011;40342;52.998;5.862;2022-07-23T08:25:34;1.20;;;0.60;;
54430;SDS011;40342;52.998;5.862;2022-07-23T08:28:02;2.00;;;0.70;;
54430;SDS011;40342;52.998;5.862;2022-07-23T08:30:30;2.90;;;0.60;;
54430;SDS011;40342;52.998;5.862;2022-07-23T08:32:57;0.88;;;0.40;;
54430;SDS011;40342;52.998;5.862;2022-07-23T08:35:32;1.23;;;0.43;;
54430;SDS011;40342;52.998;5.862;2022-07-23T08:38:06;2.17;;;0.50;;
54430;SDS011;40342;52.998;5.862;2022-07-23T08:40:36;1.00;;;0.80;;
54430;SDS011;40342;52.998;5.862;2022-07-23T08:43:04;3.35;;;0.77;;
54430;SDS011;40342;52.998;5.862;2022-07-23T08:45:31;1.75;;;0.80;;
54430;SDS011;40342;52.998;5.862;2022-07-23T08:48:02;1.38;;;0.68;;
54430;SDS011;40342;52.998;5.862;2022-07-23T08:50:32;0.85;;;0.50;;
54430;SDS011;40342;52.998;5.862;2022-07-23T08:52:59;2.00;;;0.60;;
54430;SDS011;40342;52.998;5.862;2022-07-23T08:55:26;1.40;;;0.68;;
54430;SDS011;40342;52.998;5.862;2022-07-23T08:57:52;1.55;;;0.77;;
54430;SDS011;40342;52.998;5.862;2022-07-23T09:00:19;3.70;;;0.60;;
54430;SDS011;40342;52.998;5.862;2022-07-23T09:02:45;1.95;;;0.85;;
54430;SDS011;40342;52.998;5.862;2022-07-23T09:05:12;1.65;;;0.70;;
54430;SDS011;40342;52.998;5.862;2022-07-23T09:08:03;1.58;;;0.50;;
54430;SDS011;40342;52.998;5.862;2022-07-23T09:10:44;1.80;;;0.60;;
54430;SDS011;40342;52.998;5.862;2022-07-23T09:13:34;1.42;;;0.65;;
54430;SDS011;40342;52.998;5.862;2022-07-23T09:18:42;3.72;;;0.98;;
54430;SDS011;40342;52.998;5.862;2022-07-23T09:21:15;2.55;;;0.55;;
54430;SDS011;40342;52.998;5.862;2022-07-23T09:23:55;2.05;;;0.75;;
54430;SDS011;40342;52.998;5.862;2022-07-23T09:26:32;2.72;;;0.73;;
54430;SDS011;40342;52.998;5.862;2022-07-23T09:34:42;1.10;;;0.60;;
54430;SDS011;40342;52.998;5.862;2022-07-23T09:37:14;2.22;;;1.00;;
54430;SDS011;40342;52.998;5.862;2022-07-23T09:39:42;2.60;;;0.80;;
54430;SDS011;40342;52.998;5.862;2022-07-23T09:42:19;2.90;;;0.60;;
54430;SDS011;40342;52.998;5.862;2022-07-23T09:44:49;1.67;;;0.70;;
54430;SDS011;40342;52.998;5.862;2022-07-23T09:47:19;4.30;;;0.80;;
54430;SDS011;40342;52.998;5.862;2022-07-23T09:49:57;0.90;;;0.60;;
54430;SDS011;40342;52.998;5.862;2022-07-23T09:52:32;1.73;;;0.80;;
54430;SDS011;40342;52.998;5.862;2022-07-23T09:54:59;1.42;;;0.93;;
54430;SDS011;40342;52.998;5.862;2022-07-23T09:57:26;1.27;;;0.80;;
54430;SDS011;40342;52.998;5.862;2022-07-23T09:59:52;1.48;;;0.90;;
54430;SDS011;40342;52.998;5.862;2022-07-23T10:02:22;3.22;;;1.00;;
54430;SDS011;40342;52.998;5.862;2022-07-23T10:04:48;3.85;;;1.35;;
54430;SDS011;40342;52.998;5.862;2022-07-23T10:07:17;4.15;;;1.30;;
54430;SDS011;40342;52.998;5.862;2022-07-23T10:09:46;1.50;;;1.40;;
54430;SDS011;40342;52.998;5.862;2022-07-23T10:12:14;4.05;;;2.45;;
54430;SDS011;40342;52.998;5.862;2022-07-23T10:14:55;1.23;;;1.05;;
54430;SDS011;40342;52.998;5.862;2022-07-23T10:17:22;1.27;;;1.10;;
54430;SDS011;40342;52.998;5.862;2022-07-23T10:19:47;5.47;;;1.48;;
54430;SDS011;40342;52.998;5.862;2022-07-23T10:22:15;2.97;;;0.93;;
54430;SDS011;40342;52.998;5.862;2022-07-23T10:27:50;1.95;;;0.77;;
54430;SDS011;40342;52.998;5.862;2022-07-23T10:30:46;4.63;;;1.08;;
54430;SDS011;40342;52.998;5.862;2022-07-23T10:36:19;0.80;;;0.63;;
54430;SDS011;40342;52.998;5.862;2022-07-23T10:41:31;1.33;;;0.80;;
54430;SDS011;40342;52.998;5.862;2022-07-23T10:44:14;2.60;;;0.90;;
54430;SDS011;40342;52.998;5.862;2022-07-23T10:54:39;2.53;;;1.10;;
54430;SDS011;40342;52.998;5.862;2022-07-23T10:57:05;2.35;;;0.98;;
54430;SDS011;40342;52.998;5.862;2022-07-23T11:00:08;3.35;;;1.10;;
54430;SDS011;40342;52.998;5.862;2022-07-23T11:02:36;3.95;;;1.13;;
54430;SDS011;40342;52.998;5.862;2022-07-23T11:05:09;1.48;;;0.85;;
54430;SDS011;40342;52.998;5.862;2022-07-23T11:07:38;1.92;;;1.00;;
54430;SDS011;40342;52.998;5.862;2022-07-23T11:10:32;5.32;;;1.20;;
54430;SDS011;40342;52.998;5.862;2022-07-23T11:31:59;2.70;;;1.15;;
54430;SDS011;40342;52.998;5.862;2022-07-23T11:36:59;2.25;;;1.40;;
54430;SDS011;40342;52.998;5.862;2022-07-23T11:39:27;2.08;;;1.20;;
54430;SDS011;40342;52.998;5.862;2022-07-23T11:41:54;1.17;;;1.00;;
54430;SDS011;40342;52.998;5.862;2022-07-23T11:44:29;2.28;;;1.33;;
54430;SDS011;40342;52.998;5.862;2022-07-23T11:46:56;1.20;;;1.10;;
54430;SDS011;40342;52.998;5.862;2022-07-23T11:49:23;2.42;;;1.35;;
54430;SDS011;40342;52.998;5.862;2022-07-23T11:52:05;2.20;;;1.38;;
54430;SDS011;40342;52.998;5.862;2022-07-23T11:54:33;1.77;;;1.48;;
54430;SDS011;40342;52.998;5.862;2022-07-23T11:57:00;1.80;;;1.17;;
54430;SDS011;40342;52.998;5.862;2022-07-23T11:59:27;1.05;;;1.05;;
54430;SDS011;40342;52.998;5.862;2022-07-23T12:02:00;2.53;;;1.13;;
54430;SDS011;40342;52.998;5.862;2022-07-23T12:04:37;2.13;;;1.40;;
54430;SDS011;40342;52.998;5.862;2022-07-23T12:07:04;1.73;;;1.20;;
54430;SDS011;40342;52.998;5.862;2022-07-23T12:09:46;0.90;;;0.80;;
54430;SDS011;40342;52.998;5.862;2022-07-23T12:12:12;1.13;;;0.90;;
54430;SDS011;40342;52.998;5.862;2022-07-23T12:14:46;1.17;;;0.90;;
54430;SDS011;40342;52.998;5.862;2022-07-23T12:17:13;1.60;;;1.17;;
54430;SDS011;40342;52.998;5.862;2022-07-23T12:19:39;2.00;;;1.08;;
54430;SDS011;40342;52.998;5.862;2022-07-23T12:22:05;1.70;;;1.05;;
54430;SDS011;40342;52.998;5.862;2022-07-23T12:27:21;2.15;;;1.30;;
54430;SDS011;40342;52.998;5.862;2022-07-23T12:29:47;3.22;;;1.33;;
54430;SDS011;40342;52.998;5.862;2022-07-23T12:32:17;3.05;;;1.27;;
54430;SDS011;40342;52.998;5.862;2022-07-23T12:34:50;1.98;;;1.20;;
54430;SDS011;40342;52.998;5.862;2022-07-23T12:37:37;2.17;;;1.05;;
54430;SDS011;40342;52.998;5.862;2022-07-23T12:40:21;1.75;;;1.23;;
54430;SDS011;40342;52.998;5.862;2022-07-23T12:42:50;2.90;;;1.35;;
54430;SDS011;40342;52.998;5.862;2022-07-23T12:45:24;1.83;;;1.15;;
54430;SDS011;40342;52.998;5.862;2022-07-23T12:47:52;2.00;;;1.10;;
54430;SDS011;40342;52.998;5.862;2022-07-23T12:53:18;2.50;;;1.20;;
54430;SDS011;40342;52.998;5.862;2022-07-23T12:55:48;1.85;;;1.00;;
54430;SDS011;40342;52.998;5.862;2022-07-23T12:58:18;2.13;;;1.20;;
54430;SDS011;40342;52.998;5.862;2022-07-23T13:00:48;1.08;;;1.00;;
54430;SDS011;40342;52.998;5.862;2022-07-23T13:05:52;2.25;;;1.10;;
54430;SDS011;40342;52.998;5.862;2022-07-23T13:08:18;2.90;;;1.50;;
54430;SDS011;40342;52.998;5.862;2022-07-23T13:10:44;21.45;;;3.28;;
54430;SDS011;40342;52.998;5.862;2022-07-23T13:13:13;2.13;;;1.30;;
54430;SDS011;40342;52.998;5.862;2022-07-23T13:15:43;4.40;;;1.50;;
54430;SDS011;40342;52.998;5.862;2022-07-23T13:18:09;14.52;;;2.72;;
54430;SDS011;40342;52.998;5.862;2022-07-23T13:20:35;6.85;;;1.45;;
54430;SDS011;40342;52.998;5.862;2022-07-23T13:23:01;2.47;;;1.38;;
54430;SDS011;40342;52.998;5.862;2022-07-23T13:25:27;6.47;;;1.63;;
54430;SDS011;40342;52.998;5.862;2022-07-23T13:27:52;2.67;;;1.17;;
54430;SDS011;40342;52.998;5.862;2022-07-23T13:30:18;8.73;;;1.98;;
54430;SDS011;40342;52.998;5.862;2022-07-23T13:32:44;1.33;;;1.00;;
54430;SDS011;40342;52.998;5.862;2022-07-23T13:35:09;2.75;;;1.10;;
54430;SDS011;40342;52.998;5.862;2022-07-23T13:37:36;1.10;;;1.08;;
54430;SDS011;40342;52.998;5.862;2022-07-23T13:40:02;2.90;;;1.20;;
54430;SDS011;40342;52.998;5.862;2022-07-23T13:42:28;1.13;;;0.90;;
54430;SDS011;40342;52.998;5.862;2022-07-23T13:44:54;3.85;;;1.10;;
54430;SDS011;40342;52.998;5.862;2022-07-23T13:47:20;1.10;;;1.00;;
54430;SDS011;40342;52.998;5.862;2022-07-23T13:49:45;2.75;;;1.17;;
54430;SDS011;40342;52.998;5.862;2022-07-23T13:52:11;1.52;;;0.95;;
54430;SDS011;40342;52.998;5.862;2022-07-23T13:54:36;1.90;;;1.17;;
54430;SDS011;40342;52.998;5.862;2022-07-23T13:57:02;2.10;;;1.00;;
54430;SDS011;40342;52.998;5.862;2022-07-23T13:59:28;3.63;;;1.00;;
54430;SDS011;40342;52.998;5.862;2022-07-23T14:01:54;3.10;;;1.00;;
54430;SDS011;40342;52.998;5.862;2022-07-23T14:04:20;3.33;;;0.90;;
54430;SDS011;40342;52.998;5.862;2022-07-23T14:06:46;2.20;;;1.10;;
54430;SDS011;40342;52.998;5.862;2022-07-23T14:09:19;3.13;;;0.90;;
54430;SDS011;40342;52.998;5.862;2022-07-23T14:11:45;3.70;;;0.90;;
54430;SDS011;40342;52.998;5.862;2022-07-23T14:14:10;2.78;;;1.10;;
54430;SDS011;40342;52.998;5.862;2022-07-23T14:16:36;3.50;;;1.00;;
54430;SDS011;40342;52.998;5.862;2022-07-23T14:19:03;3.85;;;1.00;;
54430;SDS011;40342;52.998;5.862;2022-07-23T14:21:28;2.95;;;1.10;;
54430;SDS011;40342;52.998;5.862;2022-07-23T14:23:54;2.80;;;1.00;;
54430;SDS011;40342;52.998;5.862;2022-07-23T14:26:20;5.07;;;1.25;;
54430;SDS011;40342;52.998;5.862;2022-07-23T14:28:46;4.80;;;1.00;;
54430;SDS011;40342;52.998;5.862;2022-07-23T14:31:11;2.58;;;0.98;;
54430;SDS011;40342;52.998;5.862;2022-07-23T14:33:37;4.43;;;1.30;;
54430;SDS011;40342;52.998;5.862;2022-07-23T14:36:03;1.05;;;0.88;;
54430;SDS011;40342;52.998;5.862;2022-07-23T14:38:28;1.50;;;1.20;;
54430;SDS011;40342;52.998;5.862;2022-07-23T14:40:55;4.57;;;1.50;;
54430;SDS011;40342;52.998;5.862;2022-07-23T14:43:21;3.88;;;1.00;;
54430;SDS011;40342;52.998;5.862;2022-07-23T14:45:47;4.70;;;1.52;;
54430;SDS011;40342;52.998;5.862;2022-07-23T14:48:13;2.40;;;1.25;;
54430;SDS011;40342;52.998;5.862;2022-07-23T14:50:38;3.97;;;1.45;;
54430;SDS011;40342;52.998;5.862;2022-07-23T14:53:04;2.95;;;1.27;;
54430;SDS011;40342;52.998;5.862;2022-07-23T14:55:30;3.53;;;1.23;;
54430;SDS011;40342;52.998;5.862;2022-07-23T14:57:57;3.78;;;1.20;;
54430;SDS011;40342;52.998;5.862;2022-07-23T15:00:25;1.83;;;1.20;;
54430;SDS011;40342;52.998;5.862;2022-07-23T15:02:51;2.92;;;1.17;;
54430;SDS011;40342;52.998;5.862;2022-07-23T15:05:18;4.25;;;1.50;;
54430;SDS011;40342;52.998;5.862;2022-07-23T15:07:44;2.10;;;1.23;;
54430;SDS011;40342;52.998;5.862;2022-07-23T15:10:10;2.85;;;1.33;;
54430;SDS011;40342;52.998;5.862;2022-07-23T15:12:37;1.90;;;1.20;;
54430;SDS011;40342;52.998;5.862;2022-07-23T15:15:03;1.33;;;1.10;;
54430;SDS011;40342;52.998;5.862;2022-07-23T15:17:29;1.20;;;0.95;;
54430;SDS011;40342;52.998;5.862;2022-07-23T15:19:54;2.53;;;1.40;;
54430;SDS011;40342;52.998;5.862;2022-07-23T15:22:20;5.32;;;1.23;;
54430;SDS011;40342;52.998;5.862;2022-07-23T15:24:46;3.05;;;1.23;;
54430;SDS011;40342;52.998;5.862;2022-07-23T15:27:11;3.35;;;1.00;;
54430;SDS011;40342;52.998;5.862;2022-07-23T15:29:37;2.80;;;1.42;;
54430;SDS011;40342;52.998;5.862;2022-07-23T15:32:03;2.60;;;1.08;;
54430;SDS011;40342;52.998;5.862;2022-07-23T15:34:29;4.70;;;1.50;;
54430;SDS011;40342;52.998;5.862;2022-07-23T15:36:54;4.25;;;1.40;;
54430;SDS011;40342;52.998;5.862;2022-07-23T15:39:20;3.63;;;1.40;;
54430;SDS011;40342;52.998;5.862;2022-07-23T15:41:46;3.15;;;1.30;;
54430;SDS011;40342;52.998;5.862;2022-07-23T15:44:11;2.33;;;1.25;;